sensor_id;sensor_type;location;lat;lon;timestamp;temperature;humidity
52103;DHT22;38101;53.126;6.878;2023-07-13T00:00:25;17.30;99.90
52103;DHT22;38101;53.126;6.878;2023-07-13T00:02:51;17.30;99.90
52103;DHT22;38101;53.126;6.878;2023-07-13T00:05:22;17.30;99.90
52103;DHT22;38101;53.126;6.878;2023-07-13T00:07:49;17.20;99.90
52103;DHT22;38101;53.126;6.878;2023-07-13T00:10:17;17.20;99.90
52103;DHT22;38101;53.126;6.878;2023-07-13T00:12:43;17.20;99.90
52103;DHT22;38101;53.126;6.878;2023-07-13T00:15:18;17.20;99.90
52103;DHT22;38101;53.126;6.878;2023-07-13T00:17:49;17.20;99.90
52103;DHT22;38101;53.126;6.878;2023-07-13T00:20:15;17.20;99.90
52103;DHT22;38101;53.126;6.878;2023-07-13T00:22:41;17.10;99.90
52103;DHT22;38101;53.126;6.878;2023-07-13T00:25:11;17.10;99.90
52103;DHT22;38101;53.126;6.878;2023-07-13T00:27:37;17.10;99.90
52103;DHT22;38101;53.126;6.878;2023-07-13T00:30:03;17.10;99.90
52103;DHT22;38101;53.126;6.878;2023-07-13T00:32:29;17.10;99.90
52103;DHT22;38101;53.126;6.878;2023-07-13T00:34:56;17.10;99.90
52103;DHT22;38101;53.126;6.878;2023-07-13T00:37:23;17.10;99.90
52103;DHT22;38101;53.126;6.878;2023-07-13T00:39:48;17.10;99.90
52103;DHT22;38101;53.126;6.878;2023-07-13T00:42:14;17.10;99.90
52103;DHT22;38101;53.126;6.878;2023-07-13T00:44:40;17.00;99.90
52103;DHT22;38101;53.126;6.878;2023-07-13T00:47:06;17.00;99.90
52103;DHT22;38101;53.126;6.878;2023-07-13T00:49:33;17.00;99.90
52103;DHT22;38101;53.126;6.878;2023-07-13T00:52:05;17.00;99.90
52103;DHT22;38101;53.126;6.878;2023-07-13T00:54:39;17.10;99.90
52103;DHT22;38101;53.126;6.878;2023-07-13T00:57:08;17.10;99.90
52103;DHT22;38101;53.126;6.878;2023-07-13T00:59:35;17.00;99.90
52103;DHT22;38101;53.126;6.878;2023-07-13T01:02:03;17.00;99.90
52103;DHT22;38101;53.126;6.878;2023-07-13T01:04:29;17.00;99.90
52103;DHT22;38101;53.126;6.878;2023-07-13T01:06:55;17.10;99.90
52103;DHT22;38101;53.126;6.878;2023-07-13T01:09:21;17.10;99.90
52103;DHT22;38101;53.126;6.878;2023-07-13T01:11:47;17.00;99.90
52103;DHT22;38101;53.126;6.878;2023-07-13T01:14:13;17.10;99.90
52103;DHT22;38101;53.126;6.878;2023-07-13T01:16:40;17.10;99.90
52103;DHT22;38101;53.126;6.878;2023-07-13T01:22:05;17.10;99.90
52103;DHT22;38101;53.126;6.878;2023-07-13T01:24:35;17.10;99.90
52103;DHT22;38101;53.126;6.878;2023-07-13T01:27:02;17.10;99.90
52103;DHT22;38101;53.126;6.878;2023-07-13T01:29:28;17.10;99.90
52103;DHT22;38101;53.126;6.878;2023-07-13T01:31:53;17.00;99.90
52103;DHT22;38101;53.126;6.878;2023-07-13T01:34:19;17.00;99.90
52103;DHT22;38101;53.126;6.878;2023-07-13T01:36:45;17.00;99.90
52103;DHT22;38101;53.126;6.878;2023-07-13T01:39:10;17.00;99.90
52103;DHT22;38101;53.126;6.878;2023-07-13T01:41:36;17.00;99.90
52103;DHT22;38101;53.126;6.878;2023-07-13T01:44:02;17.00;99.90
52103;DHT22;38101;53.126;6.878;2023-07-13T01:46:28;17.00;99.90
52103;DHT22;38101;53.126;6.878;2023-07-13T01:48:53;17.00;99.90
52103;DHT22;38101;53.126;6.878;2023-07-13T01:51:19;17.00;99.90
52103;DHT22;38101;53.126;6.878;2023-07-13T01:53:45;17.00;99.90
52103;DHT22;38101;53.126;6.878;2023-07-13T01:56:11;17.00;99.90
52103;DHT22;38101;53.126;6.878;2023-07-13T01:58:37;17.10;99.90
52103;DHT22;38101;53.126;6.878;2023-07-13T02:01:02;17.00;99.90
52103;DHT22;38101;53.126;6.878;2023-07-13T02:03:28;17.00;99.90
52103;DHT22;38101;53.126;6.878;2023-07-13T02:05:54;17.00;99.90
52103;DHT22;38101;53.126;6.878;2023-07-13T02:08:19;17.00;99.90
52103;DHT22;38101;53.126;6.878;2023-07-13T02:10:45;17.00;99.90
52103;DHT22;38101;53.126;6.878;2023-07-13T02:13:11;17.00;99.90
52103;DHT22;38101;53.126;6.878;2023-07-13T02:15:39;17.00;99.90
52103;DHT22;38101;53.126;6.878;2023-07-13T02:18:06;17.00;99.90
52103;DHT22;38101;53.126;6.878;2023-07-13T02:20:31;17.00;99.90
52103;DHT22;38101;53.126;6.878;2023-07-13T02:22:57;16.90;99.90
52103;DHT22;38101;53.126;6.878;2023-07-13T02:25:23;16.90;99.90
52103;DHT22;38101;53.126;6.878;2023-07-13T02:27:50;16.90;99.90
52103;DHT22;38101;53.126;6.878;2023-07-13T02:30:16;16.90;99.90
52103;DHT22;38101;53.126;6.878;2023-07-13T02:32:41;16.90;99.90
52103;DHT22;38101;53.126;6.878;2023-07-13T02:35:09;16.90;99.90
52103;DHT22;38101;53.126;6.878;2023-07-13T02:37:34;16.90;99.90
52103;DHT22;38101;53.126;6.878;2023-07-13T02:40:00;16.90;99.90
52103;DHT22;38101;53.126;6.878;2023-07-13T02:42:26;16.90;99.90
52103;DHT22;38101;53.126;6.878;2023-07-13T02:44:51;16.90;99.90
52103;DHT22;38101;53.126;6.878;2023-07-13T02:47:17;16.90;99.90
52103;DHT22;38101;53.126;6.878;2023-07-13T02:49:43;16.90;99.90
52103;DHT22;38101;53.126;6.878;2023-07-13T02:52:09;16.90;99.90
52103;DHT22;38101;53.126;6.878;2023-07-13T02:54:35;16.90;99.90
52103;DHT22;38101;53.126;6.878;2023-07-13T02:57:00;16.90;99.90
52103;DHT22;38101;53.126;6.878;2023-07-13T02:59:26;16.80;99.90
52103;DHT22;38101;53.126;6.878;2023-07-13T03:01:52;16.80;99.90
52103;DHT22;38101;53.126;6.878;2023-07-13T03:04:17;16.80;99.90
52103;DHT22;38101;53.126;6.878;2023-07-13T03:06:45;16.80;99.90
52103;DHT22;38101;53.126;6.878;2023-07-13T03:09:11;16.80;99.90
52103;DHT22;38101;53.126;6.878;2023-07-13T03:11:38;16.80;99.90
52103;DHT22;38101;53.126;6.878;2023-07-13T03:14:04;16.70;99.90
52103;DHT22;38101;53.126;6.878;2023-07-13T03:16:30;16.70;99.90
52103;DHT22;38101;53.126;6.878;2023-07-13T03:18:55;16.70;99.90
52103;DHT22;38101;53.126;6.878;2023-07-13T03:21:21;16.70;99.90
52103;DHT22;38101;53.126;6.878;2023-07-13T03:23:47;16.70;99.90
52103;DHT22;38101;53.126;6.878;2023-07-13T03:26:18;16.70;99.90
52103;DHT22;38101;53.126;6.878;2023-07-13T03:28:45;16.70;99.90
52103;DHT22;38101;53.126;6.878;2023-07-13T03:31:16;16.60;99.90
52103;DHT22;38101;53.126;6.878;2023-07-13T03:33:43;16.60;99.90
52103;DHT22;38101;53.126;6.878;2023-07-13T03:36:15;16.60;99.90
52103;DHT22;38101;53.126;6.878;2023-07-13T03:38:42;16.60;99.90
52103;DHT22;38101;53.126;6.878;2023-07-13T03:41:07;16.50;99.90
52103;DHT22;38101;53.126;6.878;2023-07-13T03:43:33;16.60;99.90
52103;DHT22;38101;53.126;6.878;2023-07-13T03:45:58;16.50;99.90
52103;DHT22;38101;53.126;6.878;2023-07-13T03:48:24;16.50;99.90
52103;DHT22;38101;53.126;6.878;2023-07-13T03:50:50;16.50;99.90
52103;DHT22;38101;53.126;6.878;2023-07-13T03:53:16;16.50;99.90
52103;DHT22;38101;53.126;6.878;2023-07-13T03:55:41;16.50;99.90
52103;DHT22;38101;53.126;6.878;2023-07-13T03:58:27;16.60;99.90
52103;DHT22;38101;53.126;6.878;2023-07-13T04:00:54;16.50;99.90
52103;DHT22;38101;53.126;6.878;2023-07-13T04:03:20;16.50;99.90
52103;DHT22;38101;53.126;6.878;2023-07-13T04:05:46;16.50;99.90
52103;DHT22;38101;53.126;6.878;2023-07-13T04:08:12;16.50;99.90
52103;DHT22;38101;53.126;6.878;2023-07-13T04:10:38;16.40;99.90
52103;DHT22;38101;53.126;6.878;2023-07-13T04:13:04;16.40;99.90
52103;DHT22;38101;53.126;6.878;2023-07-13T04:15:31;16.40;99.90
52103;DHT22;38101;53.126;6.878;2023-07-13T04:17:57;16.50;99.90
52103;DHT22;38101;53.126;6.878;2023-07-13T04:20:25;16.50;99.90
52103;DHT22;38101;53.126;6.878;2023-07-13T04:22:51;16.50;99.90
52103;DHT22;38101;53.126;6.878;2023-07-13T04:25:19;16.50;99.90
52103;DHT22;38101;53.126;6.878;2023-07-13T04:27:44;16.50;99.90
52103;DHT22;38101;53.126;6.878;2023-07-13T04:30:10;16.50;99.90
52103;DHT22;38101;53.126;6.878;2023-07-13T04:32:36;16.50;99.90
52103;DHT22;38101;53.126;6.878;2023-07-13T04:35:01;16.50;99.90
52103;DHT22;38101;53.126;6.878;2023-07-13T04:37:27;16.50;99.90
52103;DHT22;38101;53.126;6.878;2023-07-13T04:39:53;16.50;99.90
52103;DHT22;38101;53.126;6.878;2023-07-13T04:42:18;16.50;99.90
52103;DHT22;38101;53.126;6.878;2023-07-13T04:44:48;16.60;99.90
52103;DHT22;38101;53.126;6.878;2023-07-13T04:47:14;16.60;99.90
52103;DHT22;38101;53.126;6.878;2023-07-13T04:49:40;16.60;99.90
52103;DHT22;38101;53.126;6.878;2023-07-13T04:52:06;16.60;99.90
52103;DHT22;38101;53.126;6.878;2023-07-13T04:54:33;16.60;99.90
52103;DHT22;38101;53.126;6.878;2023-07-13T04:56:59;16.60;99.90
52103;DHT22;38101;53.126;6.878;2023-07-13T04:59:25;16.60;99.90
52103;DHT22;38101;53.126;6.878;2023-07-13T05:01:50;16.60;99.90
52103;DHT22;38101;53.126;6.878;2023-07-13T05:04:17;16.60;99.90
52103;DHT22;38101;53.126;6.878;2023-07-13T05:06:42;16.70;99.90
52103;DHT22;38101;53.126;6.878;2023-07-13T05:09:08;16.70;99.90
52103;DHT22;38101;53.126;6.878;2023-07-13T05:11:34;16.80;99.90
52103;DHT22;38101;53.126;6.878;2023-07-13T05:13:59;16.80;99.90
52103;DHT22;38101;53.126;6.878;2023-07-13T05:16:27;16.90;99.90
52103;DHT22;38101;53.126;6.878;2023-07-13T05:18:53;16.90;99.90
52103;DHT22;38101;53.126;6.878;2023-07-13T05:21:18;17.00;99.90
52103;DHT22;38101;53.126;6.878;2023-07-13T05:23:44;17.00;99.90
52103;DHT22;38101;53.126;6.878;2023-07-13T05:26:10;17.00;99.90
52103;DHT22;38101;53.126;6.878;2023-07-13T05:28:37;17.00;99.90
52103;DHT22;38101;53.126;6.878;2023-07-13T05:31:03;17.10;99.90
52103;DHT22;38101;53.126;6.878;2023-07-13T05:33:29;17.10;99.90
52103;DHT22;38101;53.126;6.878;2023-07-13T05:35:55;17.10;99.90
52103;DHT22;38101;53.126;6.878;2023-07-13T05:38:21;17.10;99.90
52103;DHT22;38101;53.126;6.878;2023-07-13T05:40:47;17.20;99.90
52103;DHT22;38101;53.126;6.878;2023-07-13T05:43:14;17.10;99.90
52103;DHT22;38101;53.126;6.878;2023-07-13T05:45:40;17.20;99.90
52103;DHT22;38101;53.126;6.878;2023-07-13T05:48:05;17.20;99.90
52103;DHT22;38101;53.126;6.878;2023-07-13T05:50:31;17.20;99.90
52103;DHT22;38101;53.126;6.878;2023-07-13T05:52:57;17.20;99.90
52103;DHT22;38101;53.126;6.878;2023-07-13T05:55:23;17.20;99.90
52103;DHT22;38101;53.126;6.878;2023-07-13T05:57:49;17.20;99.90
52103;DHT22;38101;53.126;6.878;2023-07-13T06:00:15;17.20;99.90
52103;DHT22;38101;53.126;6.878;2023-07-13T06:02:41;17.30;99.90
52103;DHT22;38101;53.126;6.878;2023-07-13T06:05:07;17.30;99.90
52103;DHT22;38101;53.126;6.878;2023-07-13T06:07:33;17.30;99.90
52103;DHT22;38101;53.126;6.878;2023-07-13T06:09:58;17.30;99.90
52103;DHT22;38101;53.126;6.878;2023-07-13T06:12:25;17.40;99.90
52103;DHT22;38101;53.126;6.878;2023-07-13T06:14:51;17.30;99.90
52103;DHT22;38101;53.126;6.878;2023-07-13T06:17:16;17.40;99.90
52103;DHT22;38101;53.126;6.878;2023-07-13T06:19:42;17.40;99.90
52103;DHT22;38101;53.126;6.878;2023-07-13T06:22:08;17.40;99.90
52103;DHT22;38101;53.126;6.878;2023-07-13T06:24:33;17.40;99.90
52103;DHT22;38101;53.126;6.878;2023-07-13T06:27:00;17.50;99.90
52103;DHT22;38101;53.126;6.878;2023-07-13T06:29:26;17.60;99.90
52103;DHT22;38101;53.126;6.878;2023-07-13T06:31:51;17.70;99.90
52103;DHT22;38101;53.126;6.878;2023-07-13T06:34:17;17.70;99.90
52103;DHT22;38101;53.126;6.878;2023-07-13T06:36:43;17.70;99.90
52103;DHT22;38101;53.126;6.878;2023-07-13T06:39:09;17.70;99.90
52103;DHT22;38101;53.126;6.878;2023-07-13T06:41:35;17.80;99.90
52103;DHT22;38101;53.126;6.878;2023-07-13T06:44:00;17.80;99.90
52103;DHT22;38101;53.126;6.878;2023-07-13T06:46:28;17.90;99.90
52103;DHT22;38101;53.126;6.878;2023-07-13T06:48:54;17.90;99.90
52103;DHT22;38101;53.126;6.878;2023-07-13T06:51:20;17.90;99.90
52103;DHT22;38101;53.126;6.878;2023-07-13T06:53:45;18.00;99.90
52103;DHT22;38101;53.126;6.878;2023-07-13T06:56:11;18.00;99.90
52103;DHT22;38101;53.126;6.878;2023-07-13T06:58:37;18.10;99.90
52103;DHT22;38101;53.126;6.878;2023-07-13T07:01:04;18.20;99.90
52103;DHT22;38101;53.126;6.878;2023-07-13T07:03:30;18.20;99.90
52103;DHT22;38101;53.126;6.878;2023-07-13T07:06:10;18.30;99.90
52103;DHT22;38101;53.126;6.878;2023-07-13T07:08:37;18.50;99.90
52103;DHT22;38101;53.126;6.878;2023-07-13T07:11:03;18.60;99.90
52103;DHT22;38101;53.126;6.878;2023-07-13T07:13:28;18.60;99.90
52103;DHT22;38101;53.126;6.878;2023-07-13T07:15:55;18.60;99.90
52103;DHT22;38101;53.126;6.878;2023-07-13T07:18:20;18.70;99.90
52103;DHT22;38101;53.126;6.878;2023-07-13T07:20:46;18.80;99.90
52103;DHT22;38101;53.126;6.878;2023-07-13T07:23:12;18.80;99.90
52103;DHT22;38101;53.126;6.878;2023-07-13T07:25:37;18.80;99.90
52103;DHT22;38101;53.126;6.878;2023-07-13T07:28:08;18.90;99.90
52103;DHT22;38101;53.126;6.878;2023-07-13T07:30:33;19.00;99.90
52103;DHT22;38101;53.126;6.878;2023-07-13T07:32:59;19.00;99.90
52103;DHT22;38101;53.126;6.878;2023-07-13T07:35:25;19.10;99.90
52103;DHT22;38101;53.126;6.878;2023-07-13T07:37:50;19.30;99.90
52103;DHT22;38101;53.126;6.878;2023-07-13T07:40:16;19.30;99.90
52103;DHT22;38101;53.126;6.878;2023-07-13T07:42:42;19.30;99.90
52103;DHT22;38101;53.126;6.878;2023-07-13T07:45:07;19.30;99.90
52103;DHT22;38101;53.126;6.878;2023-07-13T07:47:33;19.20;99.90
52103;DHT22;38101;53.126;6.878;2023-07-13T07:49:59;19.20;99.90
52103;DHT22;38101;53.126;6.878;2023-07-13T07:52:24;19.10;99.90
52103;DHT22;38101;53.126;6.878;2023-07-13T07:54:50;19.10;99.90
52103;DHT22;38101;53.126;6.878;2023-07-13T07:57:16;19.10;99.90
52103;DHT22;38101;53.126;6.878;2023-07-13T07:59:41;19.20;99.90
52103;DHT22;38101;53.126;6.878;2023-07-13T08:02:10;19.30;99.90
52103;DHT22;38101;53.126;6.878;2023-07-13T08:04:35;19.50;99.90
52103;DHT22;38101;53.126;6.878;2023-07-13T08:07:01;19.50;99.90
52103;DHT22;38101;53.126;6.878;2023-07-13T08:09:28;19.50;99.90
52103;DHT22;38101;53.126;6.878;2023-07-13T08:11:54;19.50;99.90
52103;DHT22;38101;53.126;6.878;2023-07-13T08:14:20;19.60;99.90
52103;DHT22;38101;53.126;6.878;2023-07-13T08:16:46;19.70;99.90
52103;DHT22;38101;53.126;6.878;2023-07-13T08:19:12;19.70;99.90
52103;DHT22;38101;53.126;6.878;2023-07-13T08:21:37;19.70;99.90
52103;DHT22;38101;53.126;6.878;2023-07-13T08:24:03;19.70;99.90
52103;DHT22;38101;53.126;6.878;2023-07-13T08:26:29;19.60;99.90
52103;DHT22;38101;53.126;6.878;2023-07-13T08:28:55;19.60;99.90
52103;DHT22;38101;53.126;6.878;2023-07-13T08:31:21;19.50;99.90
52103;DHT22;38101;53.126;6.878;2023-07-13T08:33:46;19.40;99.90
52103;DHT22;38101;53.126;6.878;2023-07-13T08:36:12;19.30;99.90
52103;DHT22;38101;53.126;6.878;2023-07-13T08:38:38;19.30;99.90
52103;DHT22;38101;53.126;6.878;2023-07-13T08:41:12;19.30;99.90
52103;DHT22;38101;53.126;6.878;2023-07-13T08:43:38;19.30;99.90
52103;DHT22;38101;53.126;6.878;2023-07-13T08:46:13;19.30;99.90
52103;DHT22;38101;53.126;6.878;2023-07-13T08:49:09;19.20;99.90
52103;DHT22;38101;53.126;6.878;2023-07-13T08:54:49;19.30;99.90
52103;DHT22;38101;53.126;6.878;2023-07-13T08:57:29;19.20;99.90
52103;DHT22;38101;53.126;6.878;2023-07-13T08:59:56;19.20;99.90
52103;DHT22;38101;53.126;6.878;2023-07-13T09:05:26;18.90;99.90
52103;DHT22;38101;53.126;6.878;2023-07-13T09:08:05;18.90;99.90
52103;DHT22;38101;53.126;6.878;2023-07-13T09:16:21;18.70;99.90
52103;DHT22;38101;53.126;6.878;2023-07-13T09:18:50;18.50;99.90
52103;DHT22;38101;53.126;6.878;2023-07-13T09:21:35;18.50;99.90
52103;DHT22;38101;53.126;6.878;2023-07-13T09:24:29;18.40;99.90
52103;DHT22;38101;53.126;6.878;2023-07-13T09:26:57;18.30;99.90
52103;DHT22;38101;53.126;6.878;2023-07-13T09:29:30;18.20;99.90
52103;DHT22;38101;53.126;6.878;2023-07-13T09:32:02;18.30;99.90
52103;DHT22;38101;53.126;6.878;2023-07-13T09:34:29;18.40;99.90
52103;DHT22;38101;53.126;6.878;2023-07-13T09:36:56;18.60;99.90
52103;DHT22;38101;53.126;6.878;2023-07-13T09:39:33;18.70;99.90
52103;DHT22;38101;53.126;6.878;2023-07-13T09:42:07;18.80;99.90
52103;DHT22;38101;53.126;6.878;2023-07-13T09:45:00;18.80;99.90
52103;DHT22;38101;53.126;6.878;2023-07-13T09:47:28;18.80;99.90
52103;DHT22;38101;53.126;6.878;2023-07-13T09:50:00;18.80;99.90
52103;DHT22;38101;53.126;6.878;2023-07-13T09:52:44;18.80;99.90
52103;DHT22;38101;53.126;6.878;2023-07-13T09:55:44;18.90;99.90
52103;DHT22;38101;53.126;6.878;2023-07-13T09:58:22;18.90;99.90
52103;DHT22;38101;53.126;6.878;2023-07-13T10:01:03;19.00;99.90
52103;DHT22;38101;53.126;6.878;2023-07-13T10:03:32;19.20;99.90
52103;DHT22;38101;53.126;6.878;2023-07-13T10:06:20;19.50;99.90
52103;DHT22;38101;53.126;6.878;2023-07-13T10:08:49;19.70;99.90
52103;DHT22;38101;53.126;6.878;2023-07-13T10:11:26;19.90;99.90
52103;DHT22;38101;53.126;6.878;2023-07-13T10:14:02;20.10;99.90
52103;DHT22;38101;53.126;6.878;2023-07-13T10:16:33;20.30;99.90
52103;DHT22;38101;53.126;6.878;2023-07-13T10:19:10;20.20;99.90
52103;DHT22;38101;53.126;6.878;2023-07-13T10:21:43;20.20;99.90
52103;DHT22;38101;53.126;6.878;2023-07-13T10:24:23;20.10;99.90
52103;DHT22;38101;53.126;6.878;2023-07-13T10:27:17;19.90;99.90
52103;DHT22;38101;53.126;6.878;2023-07-13T10:29:48;19.80;99.90
52103;DHT22;38101;53.126;6.878;2023-07-13T10:32:15;19.80;99.90
52103;DHT22;38101;53.126;6.878;2023-07-13T10:34:44;19.70;99.90
52103;DHT22;38101;53.126;6.878;2023-07-13T10:37:22;19.60;99.90
52103;DHT22;38101;53.126;6.878;2023-07-13T10:39:49;19.60;99.90
52103;DHT22;38101;53.126;6.878;2023-07-13T10:42:24;19.50;99.90
52103;DHT22;38101;53.126;6.878;2023-07-13T10:44:50;19.50;99.90
52103;DHT22;38101;53.126;6.878;2023-07-13T10:47:16;19.60;99.90
52103;DHT22;38101;53.126;6.878;2023-07-13T10:49:44;19.60;99.90
52103;DHT22;38101;53.126;6.878;2023-07-13T10:52:49;19.60;99.90
52103;DHT22;38101;53.126;6.878;2023-07-13T10:58:22;19.90;99.90
52103;DHT22;38101;53.126;6.878;2023-07-13T11:01:17;20.20;99.90
52103;DHT22;38101;53.126;6.878;2023-07-13T11:11:47;20.20;99.90
52103;DHT22;38101;53.126;6.878;2023-07-13T11:17:49;20.30;99.90
52103;DHT22;38101;53.126;6.878;2023-07-13T11:22:53;20.80;99.90
52103;DHT22;38101;53.126;6.878;2023-07-13T11:25:34;20.90;99.90
52103;DHT22;38101;53.126;6.878;2023-07-13T11:28:11;20.90;99.90
52103;DHT22;38101;53.126;6.878;2023-07-13T11:33:19;20.70;99.90
52103;DHT22;38101;53.126;6.878;2023-07-13T11:35:49;20.60;99.90
52103;DHT22;38101;53.126;6.878;2023-07-13T11:38:28;20.50;99.90
52103;DHT22;38101;53.126;6.878;2023-07-13T11:40:56;20.60;99.90
52103;DHT22;38101;53.126;6.878;2023-07-13T11:43:23;20.80;99.90
52103;DHT22;38101;53.126;6.878;2023-07-13T11:45:50;21.20;99.90
52103;DHT22;38101;53.126;6.878;2023-07-13T11:48:19;21.30;99.90
52103;DHT22;38101;53.126;6.878;2023-07-13T11:50:55;21.60;99.90
52103;DHT22;38101;53.126;6.878;2023-07-13T11:53:22;21.70;99.90
52103;DHT22;38101;53.126;6.878;2023-07-13T11:55:48;22.00;99.90
52103;DHT22;38101;53.126;6.878;2023-07-13T11:58:19;22.10;99.90
52103;DHT22;38101;53.126;6.878;2023-07-13T12:00:46;22.00;99.90
52103;DHT22;38101;53.126;6.878;2023-07-13T12:03:20;21.90;99.90
52103;DHT22;38101;53.126;6.878;2023-07-13T12:06:06;21.70;99.90
52103;DHT22;38101;53.126;6.878;2023-07-13T12:08:45;21.70;99.90
52103;DHT22;38101;53.126;6.878;2023-07-13T12:11:17;21.90;99.90
52103;DHT22;38101;53.126;6.878;2023-07-13T12:13:44;22.10;99.90
52103;DHT22;38101;53.126;6.878;2023-07-13T12:16:30;22.50;99.90
52103;DHT22;38101;53.126;6.878;2023-07-13T12:19:00;22.70;99.90
52103;DHT22;38101;53.126;6.878;2023-07-13T12:21:36;22.70;99.90
52103;DHT22;38101;53.126;6.878;2023-07-13T12:24:14;23.10;99.90
52103;DHT22;38101;53.126;6.878;2023-07-13T12:26:40;23.30;99.90
52103;DHT22;38101;53.126;6.878;2023-07-13T12:29:07;23.40;99.90
52103;DHT22;38101;53.126;6.878;2023-07-13T12:31:41;23.40;99.90
52103;DHT22;38101;53.126;6.878;2023-07-13T12:34:09;23.30;99.90
52103;DHT22;38101;53.126;6.878;2023-07-13T12:36:38;23.20;99.20
52103;DHT22;38101;53.126;6.878;2023-07-13T12:41:47;23.00;98.60
52103;DHT22;38101;53.126;6.878;2023-07-13T12:44:22;22.90;98.80
52103;DHT22;38101;53.126;6.878;2023-07-13T12:47:03;22.80;99.90
52103;DHT22;38101;53.126;6.878;2023-07-13T12:49:32;23.00;99.90
52103;DHT22;38101;53.126;6.878;2023-07-13T12:52:02;23.20;99.90
52103;DHT22;38101;53.126;6.878;2023-07-13T12:54:30;23.30;99.50
52103;DHT22;38101;53.126;6.878;2023-07-13T12:56:57;23.40;97.30
52103;DHT22;38101;53.126;6.878;2023-07-13T12:59:27;23.10;98.00
52103;DHT22;38101;53.126;6.878;2023-07-13T13:01:54;23.20;98.30
52103;DHT22;38101;53.126;6.878;2023-07-13T13:04:20;23.30;99.40
52103;DHT22;38101;53.126;6.878;2023-07-13T13:06:48;23.40;98.90
52103;DHT22;38101;53.126;6.878;2023-07-13T13:09:16;23.40;98.00
52103;DHT22;38101;53.126;6.878;2023-07-13T13:11:43;23.20;97.20
52103;DHT22;38101;53.126;6.878;2023-07-13T13:14:09;22.90;97.30
52103;DHT22;38101;53.126;6.878;2023-07-13T13:16:47;23.00;96.80
52103;DHT22;38101;53.126;6.878;2023-07-13T13:19:17;23.00;97.20
52103;DHT22;38101;53.126;6.878;2023-07-13T13:21:45;23.10;97.40
52103;DHT22;38101;53.126;6.878;2023-07-13T13:24:15;23.40;97.20
52103;DHT22;38101;53.126;6.878;2023-07-13T13:26:43;23.60;97.50
52103;DHT22;38101;53.126;6.878;2023-07-13T13:29:13;23.50;98.20
52103;DHT22;38101;53.126;6.878;2023-07-13T13:31:39;23.30;98.10
52103;DHT22;38101;53.126;6.878;2023-07-13T13:34:11;23.20;97.70
52103;DHT22;38101;53.126;6.878;2023-07-13T13:36:37;23.10;98.70
52103;DHT22;38101;53.126;6.878;2023-07-13T13:41:40;23.30;98.40
52103;DHT22;38101;53.126;6.878;2023-07-13T13:44:09;23.20;99.20
52103;DHT22;38101;53.126;6.878;2023-07-13T13:46:35;23.30;99.40
52103;DHT22;38101;53.126;6.878;2023-07-13T13:49:01;23.30;98.50
52103;DHT22;38101;53.126;6.878;2023-07-13T13:51:28;23.10;98.60
52103;DHT22;38101;53.126;6.878;2023-07-13T13:53:55;23.10;97.40
52103;DHT22;38101;53.126;6.878;2023-07-13T13:56:21;23.10;98.00
52103;DHT22;38101;53.126;6.878;2023-07-13T13:58:47;23.10;97.70
52103;DHT22;38101;53.126;6.878;2023-07-13T14:01:22;23.00;97.80
52103;DHT22;38101;53.126;6.878;2023-07-13T14:03:50;23.20;98.30
52103;DHT22;38101;53.126;6.878;2023-07-13T14:06:17;23.40;98.90
52103;DHT22;38101;53.126;6.878;2023-07-13T14:08:43;23.50;98.10
52103;DHT22;38101;53.126;6.878;2023-07-13T14:11:14;23.80;98.00
52103;DHT22;38101;53.126;6.878;2023-07-13T14:13:43;23.80;96.50
52103;DHT22;38101;53.126;6.878;2023-07-13T14:16:15;23.50;97.90
52103;DHT22;38101;53.126;6.878;2023-07-13T14:18:44;23.30;98.20
52103;DHT22;38101;53.126;6.878;2023-07-13T14:21:18;23.20;99.20
52103;DHT22;38101;53.126;6.878;2023-07-13T14:23:46;23.40;99.10
52103;DHT22;38101;53.126;6.878;2023-07-13T14:26:14;23.40;99.30
52103;DHT22;38101;53.126;6.878;2023-07-13T14:28:46;23.60;98.90
52103;DHT22;38101;53.126;6.878;2023-07-13T14:31:14;23.80;99.10
52103;DHT22;38101;53.126;6.878;2023-07-13T14:33:40;23.90;98.60
52103;DHT22;38101;53.126;6.878;2023-07-13T14:36:31;23.90;98.90
52103;DHT22;38101;53.126;6.878;2023-07-13T14:39:08;24.00;98.90
52103;DHT22;38101;53.126;6.878;2023-07-13T14:41:35;23.90;98.40
52103;DHT22;38101;53.126;6.878;2023-07-13T14:44:01;23.80;98.40
52103;DHT22;38101;53.126;6.878;2023-07-13T14:46:32;23.80;98.40
52103;DHT22;38101;53.126;6.878;2023-07-13T14:49:11;23.60;98.40
52103;DHT22;38101;53.126;6.878;2023-07-13T14:51:39;23.60;99.00
52103;DHT22;38101;53.126;6.878;2023-07-13T14:54:07;23.70;98.20
52103;DHT22;38101;53.126;6.878;2023-07-13T14:56:34;23.80;98.00
52103;DHT22;38101;53.126;6.878;2023-07-13T14:59:00;23.70;98.00
52103;DHT22;38101;53.126;6.878;2023-07-13T15:01:26;23.60;98.80
52103;DHT22;38101;53.126;6.878;2023-07-13T15:03:53;23.70;98.30
52103;DHT22;38101;53.126;6.878;2023-07-13T15:06:19;23.80;98.20
52103;DHT22;38101;53.126;6.878;2023-07-13T15:08:45;23.90;97.80
52103;DHT22;38101;53.126;6.878;2023-07-13T15:11:12;24.10;97.90
52103;DHT22;38101;53.126;6.878;2023-07-13T15:13:41;24.20;97.90
52103;DHT22;38101;53.126;6.878;2023-07-13T15:16:18;24.20;97.60
52103;DHT22;38101;53.126;6.878;2023-07-13T15:18:45;24.10;96.90
52103;DHT22;38101;53.126;6.878;2023-07-13T15:21:17;23.90;97.10
52103;DHT22;38101;53.126;6.878;2023-07-13T15:23:44;24.00;97.40
52103;DHT22;38101;53.126;6.878;2023-07-13T15:26:15;24.00;97.00
52103;DHT22;38101;53.126;6.878;2023-07-13T15:28:45;23.90;96.20
52103;DHT22;38101;53.126;6.878;2023-07-13T15:31:22;24.00;96.90
52103;DHT22;38101;53.126;6.878;2023-07-13T15:33:53;24.10;96.90
52103;DHT22;38101;53.126;6.878;2023-07-13T15:36:21;24.20;95.80
52103;DHT22;38101;53.126;6.878;2023-07-13T15:38:48;24.20;95.70
52103;DHT22;38101;53.126;6.878;2023-07-13T15:41:23;23.90;96.60
52103;DHT22;38101;53.126;6.878;2023-07-13T15:43:50;23.60;96.60
52103;DHT22;38101;53.126;6.878;2023-07-13T15:46:19;23.50;97.30
52103;DHT22;38101;53.126;6.878;2023-07-13T15:48:46;23.60;97.30
52103;DHT22;38101;53.126;6.878;2023-07-13T15:51:25;23.70;97.20
52103;DHT22;38101;53.126;6.878;2023-07-13T15:53:57;23.70;96.10
52103;DHT22;38101;53.126;6.878;2023-07-13T15:56:26;23.80;95.30
52103;DHT22;38101;53.126;6.878;2023-07-13T15:58:52;23.90;95.60
52103;DHT22;38101;53.126;6.878;2023-07-13T16:01:19;23.90;94.90
52103;DHT22;38101;53.126;6.878;2023-07-13T16:03:46;23.90;94.90
52103;DHT22;38101;53.126;6.878;2023-07-13T16:06:23;23.90;94.80
52103;DHT22;38101;53.126;6.878;2023-07-13T16:08:51;23.90;95.40
52103;DHT22;38101;53.126;6.878;2023-07-13T16:11:24;24.00;95.10
52103;DHT22;38101;53.126;6.878;2023-07-13T16:13:51;24.00;95.60
52103;DHT22;38101;53.126;6.878;2023-07-13T16:16:31;24.10;95.50
52103;DHT22;38101;53.126;6.878;2023-07-13T16:18:58;24.20;94.50